Aeroporto :
LOGIN :

Iscrizione | Disclaimer

   EN    FR    IT 

 










Sommario :    VFR   VFR Marginale   IFR   IFR Intensivo   IFR Molto Intensivo
Visibilità : 
Base nubi : 
>= 8 km
>= 3000ft
5 / 8 km
1000 / 3000 ft
1500m / 5 km
500 / 1000 ft
800 / 1500m
200 / 500 ft
< 800m
< 200 ft
Simboli :   Temporali  Nebbia  Neve Forte  Precipitazioni Forti  Vento > 20 kt
SIGMETs :   Varie  Temporali  Ghiacco  Turbolenza  Onda orograficha  Ceneri Vulcaniche






- Altitudine del aeroporto : 308 ft
- Codice IATA : MHG


EDFM - Mannheim-City

ULTIMO METAR :
  • 282250Z AUTO 15005KT 9999 // OVC063/// 18/09 Q1017

METARs OBSOLETI :
  • 282220Z AUTO 18003KT 9999 // OVC067/// 18/09 Q1017
  • 282150Z AUTO VRB02KT 9999 // BKN068/// OVC085/// 18/09 Q1018
  • 282120Z AUTO VRB02KT 9999 // BKN060/// OVC072/// 19/09 Q1018
  • 282050Z AUTO 18003KT 150V210 9999 // SCT062/// OVC071/// 19/09 Q1018
  • 282020Z AUTO 17004KT 140V200 9999 // BKN072/// OVC084/// 19/09 Q1018
  • 281950Z AUTO 15003KT 120V190 9999 // OVC072/// 19/09 Q1018
  • 281920Z AUTO 18004KT 150V210 9999 // OVC077/// 19/08 Q1018
  • 281850Z 18004KT 150V220 CAVOK 19/08 Q1018

Previsioni scadute.



MetMap, La meteo Aeronautica in un colpo d'occhio ! - Copyright ORBIFLY Dicembre 2007 - Disclaimer

ORBIFLY MET'MAP TEAM :

Programmazione e sviluppo : Alexandra Zaïnal
Concezione : Baudouin d'Aumeries
Supporto tecnico e logistico : Manuel Goepfert
Aiuto : Marc-Olivier Méhu
Aiuto per la traduzione : Arnaldo La Scala




FONTI E CREDITI :

   NOAA